sensor_id;sensor_type;location;lat;lon;timestamp;temperature;humidity
77052;SHT30;65980;44.898;8.602;2022-12-29T00:02:21;8.34;90.93
77052;SHT30;65980;44.898;8.602;2022-12-29T00:05:26;8.48;90.65
77052;SHT30;65980;44.898;8.602;2022-12-29T00:09:05;8.58;90.22
77052;SHT30;65980;44.898;8.602;2022-12-29T00:12:10;8.49;90.61
77052;SHT30;65980;44.898;8.602;2022-12-29T00:15:13;8.44;90.76
77052;SHT30;65980;44.898;8.602;2022-12-29T00:18:42;8.41;91.03
77052;SHT30;65980;44.898;8.602;2022-12-29T00:21:47;8.50;90.65
77052;SHT30;65980;44.898;8.602;2022-12-29T00:25:11;8.70;89.93
77052;SHT30;65980;44.898;8.602;2022-12-29T00:28:38;8.83;89.57
77052;SHT30;65980;44.898;8.602;2022-12-29T00:32:12;8.99;88.60
77052;SHT30;65980;44.898;8.602;2022-12-29T00:35:54;9.08;88.36
77052;SHT30;65980;44.898;8.602;2022-12-29T00:39:33;9.24;87.29
77052;SHT30;65980;44.898;8.602;2022-12-29T00:43:01;9.25;87.08
77052;SHT30;65980;44.898;8.602;2022-12-29T00:50:12;8.70;88.78
77052;SHT30;65980;44.898;8.602;2022-12-29T00:53:24;8.73;88.86
77052;SHT30;65980;44.898;8.602;2022-12-29T00:56:33;8.52;89.65
77052;SHT30;65980;44.898;8.602;2022-12-29T00:59:50;8.49;89.93
77052;SHT30;65980;44.898;8.602;2022-12-29T01:03:19;8.48;90.02
77052;SHT30;65980;44.898;8.602;2022-12-29T01:07:02;8.42;89.87
77052;SHT30;65980;44.898;8.602;2022-12-29T01:10:39;8.31;90.61
77052;SHT30;65980;44.898;8.602;2022-12-29T01:13:53;8.42;89.96
77052;SHT30;65980;44.898;8.602;2022-12-29T01:17:08;8.34;90.49
77052;SHT30;65980;44.898;8.602;2022-12-29T01:20:44;8.20;91.16
77052;SHT30;65980;44.898;8.602;2022-12-29T01:24:26;8.20;91.13
77052;SHT30;65980;44.898;8.602;2022-12-29T01:27:40;8.13;91.27
77052;SHT30;65980;44.898;8.602;2022-12-29T01:31:31;8.13;91.10
77052;SHT30;65980;44.898;8.602;2022-12-29T01:34:53;8.08;90.97
77052;SHT30;65980;44.898;8.602;2022-12-29T01:38:53;8.15;90.91
77052;SHT30;65980;44.898;8.602;2022-12-29T01:42:30;8.20;90.59
77052;SHT30;65980;44.898;8.602;2022-12-29T01:45:47;8.05;91.25
77052;SHT30;65980;44.898;8.602;2022-12-29T01:49:47;8.07;90.87
77052;SHT30;65980;44.898;8.602;2022-12-29T01:53:45;8.17;90.67
77052;SHT30;65980;44.898;8.602;2022-12-29T01:57:33;8.08;90.75
77052;SHT30;65980;44.898;8.602;2022-12-29T02:01:04;8.01;91.12
77052;SHT30;65980;44.898;8.602;2022-12-29T02:04:54;8.01;91.53
77052;SHT30;65980;44.898;8.602;2022-12-29T02:08:24;7.98;91.57
77052;SHT30;65980;44.898;8.602;2022-12-29T02:12:01;8.00;91.37
77052;SHT30;65980;44.898;8.602;2022-12-29T02:15:16;7.91;91.65
77052;SHT30;65980;44.898;8.602;2022-12-29T02:27:57;7.94;91.61
77052;SHT30;65980;44.898;8.602;2022-12-29T02:35:01;8.01;91.34
77052;SHT30;65980;44.898;8.602;2022-12-29T02:38:59;7.94;91.68
77052;SHT30;65980;44.898;8.602;2022-12-29T02:42:39;7.97;91.48
77052;SHT30;65980;44.898;8.602;2022-12-29T02:49:54;8.07;90.96
77052;SHT30;65980;44.898;8.602;2022-12-29T02:53:06;8.05;91.05
77052;SHT30;65980;44.898;8.602;2022-12-29T02:56:12;7.94;91.55
77052;SHT30;65980;44.898;8.602;2022-12-29T02:59:17;7.89;91.61
77052;SHT30;65980;44.898;8.602;2022-12-29T03:09:11;7.91;91.86
77052;SHT30;65980;44.898;8.602;2022-12-29T03:12:30;7.90;91.50
77052;SHT30;65980;44.898;8.602;2022-12-29T03:16:20;7.93;91.35
77052;SHT30;65980;44.898;8.602;2022-12-29T03:19:35;8.03;90.87
77052;SHT30;65980;44.898;8.602;2022-12-29T03:22:44;7.94;91.14
77052;SHT30;65980;44.898;8.602;2022-12-29T03:25:55;8.00;91.25
77052;SHT30;65980;44.898;8.602;2022-12-29T03:29:01;8.05;90.66
77052;SHT30;65980;44.898;8.602;2022-12-29T03:32:08;8.04;90.96
77052;SHT30;65980;44.898;8.602;2022-12-29T03:35:17;7.93;90.84
77052;SHT30;65980;44.898;8.602;2022-12-29T03:38:30;7.87;91.14
77052;SHT30;65980;44.898;8.602;2022-12-29T03:41:36;7.87;91.20
77052;SHT30;65980;44.898;8.602;2022-12-29T03:44:43;7.90;91.16
77052;SHT30;65980;44.898;8.602;2022-12-29T03:47:51;7.93;91.03
77052;SHT30;65980;44.898;8.602;2022-12-29T03:50:57;8.03;90.64
77052;SHT30;65980;44.898;8.602;2022-12-29T03:54:02;8.10;90.12
77052;SHT30;65980;44.898;8.602;2022-12-29T03:57:08;8.03;90.12
77052;SHT30;65980;44.898;8.602;2022-12-29T04:00:47;8.17;89.37
77052;SHT30;65980;44.898;8.602;2022-12-29T04:03:52;7.89;90.49
77052;SHT30;65980;44.898;8.602;2022-12-29T04:06:57;7.87;90.78
77052;SHT30;65980;44.898;8.602;2022-12-29T04:10:02;7.85;90.78
77052;SHT30;65980;44.898;8.602;2022-12-29T04:13:10;7.85;91.16
77052;SHT30;65980;44.898;8.602;2022-12-29T04:16:15;7.91;90.85
77052;SHT30;65980;44.898;8.602;2022-12-29T04:19:19;7.93;90.61
77052;SHT30;65980;44.898;8.602;2022-12-29T04:22:26;7.86;90.80
77052;SHT30;65980;44.898;8.602;2022-12-29T04:25:31;7.83;91.01
77052;SHT30;65980;44.898;8.602;2022-12-29T04:28:37;7.94;90.22
77052;SHT30;65980;44.898;8.602;2022-12-29T04:32:08;7.80;90.37
77052;SHT30;65980;44.898;8.602;2022-12-29T04:35:17;7.80;90.45
77052;SHT30;65980;44.898;8.602;2022-12-29T04:38:23;7.77;90.60
77052;SHT30;65980;44.898;8.602;2022-12-29T04:41:32;7.72;90.92
77052;SHT30;65980;44.898;8.602;2022-12-29T04:44:36;7.73;90.88
77052;SHT30;65980;44.898;8.602;2022-12-29T04:47:48;7.72;90.66
77052;SHT30;65980;44.898;8.602;2022-12-29T04:51:28;7.73;90.82
77052;SHT30;65980;44.898;8.602;2022-12-29T04:54:32;7.65;91.22
77052;SHT30;65980;44.898;8.602;2022-12-29T04:57:47;7.80;90.43
77052;SHT30;65980;44.898;8.602;2022-12-29T05:00:55;7.75;90.73
77052;SHT30;65980;44.898;8.602;2022-12-29T05:04:03;7.73;90.91
77052;SHT30;65980;44.898;8.602;2022-12-29T05:07:08;7.80;90.44
77052;SHT30;65980;44.898;8.602;2022-12-29T05:10:12;7.75;90.85
77052;SHT30;65980;44.898;8.602;2022-12-29T05:13:18;7.72;91.05
77052;SHT30;65980;44.898;8.602;2022-12-29T05:16:22;7.73;91.04
77052;SHT30;65980;44.898;8.602;2022-12-29T05:19:27;7.73;90.84
77052;SHT30;65980;44.898;8.602;2022-12-29T05:22:32;7.79;90.47
77052;SHT30;65980;44.898;8.602;2022-12-29T05:25:36;7.75;90.64
77052;SHT30;65980;44.898;8.602;2022-12-29T05:28:53;7.68;91.02
77052;SHT30;65980;44.898;8.602;2022-12-29T05:31:57;7.70;91.05
77052;SHT30;65980;44.898;8.602;2022-12-29T05:35:05;7.68;90.83
77052;SHT30;65980;44.898;8.602;2022-12-29T05:38:38;7.72;90.99
77052;SHT30;65980;44.898;8.602;2022-12-29T05:41:52;7.94;90.28
77052;SHT30;65980;44.898;8.602;2022-12-29T05:45:25;7.80;90.43
77052;SHT30;65980;44.898;8.602;2022-12-29T05:48:44;7.87;90.18
77052;SHT30;65980;44.898;8.602;2022-12-29T05:52:08;7.89;90.06
77052;SHT30;65980;44.898;8.602;2022-12-29T05:55:13;7.93;89.95
77052;SHT30;65980;44.898;8.602;2022-12-29T05:58:25;7.75;90.42
77052;SHT30;65980;44.898;8.602;2022-12-29T06:01:56;7.77;90.08
77052;SHT30;65980;44.898;8.602;2022-12-29T06:05:13;7.68;90.88
77052;SHT30;65980;44.898;8.602;2022-12-29T06:08:59;7.65;91.34
77052;SHT30;65980;44.898;8.602;2022-12-29T06:12:36;7.83;90.42
77052;SHT30;65980;44.898;8.602;2022-12-29T06:15:42;7.90;90.00
77052;SHT30;65980;44.898;8.602;2022-12-29T06:18:48;7.96;90.04
77052;SHT30;65980;44.898;8.602;2022-12-29T06:21:53;8.00;89.80
77052;SHT30;65980;44.898;8.602;2022-12-29T06:25:16;7.91;90.00
77052;SHT30;65980;44.898;8.602;2022-12-29T06:28:31;7.86;89.87
77052;SHT30;65980;44.898;8.602;2022-12-29T06:31:53;7.91;89.70
77052;SHT30;65980;44.898;8.602;2022-12-29T06:35:09;7.86;89.82
77052;SHT30;65980;44.898;8.602;2022-12-29T06:38:20;7.77;90.47
77052;SHT30;65980;44.898;8.602;2022-12-29T06:41:24;7.76;90.42
77052;SHT30;65980;44.898;8.602;2022-12-29T06:45:08;7.82;89.84
77052;SHT30;65980;44.898;8.602;2022-12-29T06:48:13;7.79;90.27
77052;SHT30;65980;44.898;8.602;2022-12-29T06:51:21;7.76;90.26
77052;SHT30;65980;44.898;8.602;2022-12-29T06:54:28;7.79;89.78
77052;SHT30;65980;44.898;8.602;2022-12-29T06:57:32;7.76;90.21
77052;SHT30;65980;44.898;8.602;2022-12-29T07:00:42;7.75;90.38
77052;SHT30;65980;44.898;8.602;2022-12-29T07:07:40;7.77;90.10
77052;SHT30;65980;44.898;8.602;2022-12-29T07:10:45;7.56;90.54
77052;SHT30;65980;44.898;8.602;2022-12-29T07:13:50;7.70;90.28
77052;SHT30;65980;44.898;8.602;2022-12-29T07:16:55;7.65;90.42
77052;SHT30;65980;44.898;8.602;2022-12-29T07:20:00;7.75;89.76
77052;SHT30;65980;44.898;8.602;2022-12-29T07:23:05;7.72;89.54
77052;SHT30;65980;44.898;8.602;2022-12-29T07:26:12;7.65;90.13
77052;SHT30;65980;44.898;8.602;2022-12-29T07:29:17;7.70;89.91
77052;SHT30;65980;44.898;8.602;2022-12-29T07:32:21;7.58;90.02
77052;SHT30;65980;44.898;8.602;2022-12-29T07:35:25;7.58;89.52
77052;SHT30;65980;44.898;8.602;2022-12-29T07:38:31;7.45;90.02
77052;SHT30;65980;44.898;8.602;2022-12-29T07:41:35;7.48;89.80
77052;SHT30;65980;44.898;8.602;2022-12-29T07:44:40;7.41;90.10
77052;SHT30;65980;44.898;8.602;2022-12-29T07:47:56;7.41;90.60
77052;SHT30;65980;44.898;8.602;2022-12-29T07:51:01;7.45;90.46
77052;SHT30;65980;44.898;8.602;2022-12-29T07:54:06;7.52;89.43
77052;SHT30;65980;44.898;8.602;2022-12-29T07:57:11;7.44;89.78
77052;SHT30;65980;44.898;8.602;2022-12-29T08:00:16;7.35;89.93
77052;SHT30;65980;44.898;8.602;2022-12-29T08:03:21;7.42;89.76
77052;SHT30;65980;44.898;8.602;2022-12-29T08:06:56;7.48;89.19
77052;SHT30;65980;44.898;8.602;2022-12-29T08:10:00;7.42;89.45
77052;SHT30;65980;44.898;8.602;2022-12-29T08:13:05;7.38;89.85
77052;SHT30;65980;44.898;8.602;2022-12-29T08:16:10;7.41;89.51
77052;SHT30;65980;44.898;8.602;2022-12-29T08:19:14;7.62;88.80
77052;SHT30;65980;44.898;8.602;2022-12-29T08:22:19;7.58;88.59
77052;SHT30;65980;44.898;8.602;2022-12-29T08:25:25;7.47;88.80
77052;SHT30;65980;44.898;8.602;2022-12-29T08:28:29;7.35;88.90
77052;SHT30;65980;44.898;8.602;2022-12-29T08:31:34;7.42;88.31
77052;SHT30;65980;44.898;8.602;2022-12-29T08:34:39;7.41;88.58
77052;SHT30;65980;44.898;8.602;2022-12-29T08:37:44;7.41;88.02
77052;SHT30;65980;44.898;8.602;2022-12-29T08:40:51;7.42;87.95
77052;SHT30;65980;44.898;8.602;2022-12-29T08:43:56;7.39;88.63
77052;SHT30;65980;44.898;8.602;2022-12-29T08:47:00;7.49;87.86
77052;SHT30;65980;44.898;8.602;2022-12-29T08:50:06;7.48;87.39
77052;SHT30;65980;44.898;8.602;2022-12-29T08:53:12;7.48;87.35
77052;SHT30;65980;44.898;8.602;2022-12-29T08:56:23;7.38;87.76
77052;SHT30;65980;44.898;8.602;2022-12-29T08:59:31;7.47;87.00
77052;SHT30;65980;44.898;8.602;2022-12-29T09:02:35;7.41;87.48
77052;SHT30;65980;44.898;8.602;2022-12-29T09:05:40;7.51;85.98
77052;SHT30;65980;44.898;8.602;2022-12-29T09:08:45;7.45;86.04
77052;SHT30;65980;44.898;8.602;2022-12-29T09:11:49;7.45;85.92
77052;SHT30;65980;44.898;8.602;2022-12-29T09:14:55;7.42;85.72
77052;SHT30;65980;44.898;8.602;2022-12-29T09:18:00;7.36;86.27
77052;SHT30;65980;44.898;8.602;2022-12-29T09:21:05;7.30;86.20
77052;SHT30;65980;44.898;8.602;2022-12-29T09:24:10;7.34;85.80
77052;SHT30;65980;44.898;8.602;2022-12-29T09:27:14;7.48;86.41
77052;SHT30;65980;44.898;8.602;2022-12-29T09:30:20;7.41;84.67
77052;SHT30;65980;44.898;8.602;2022-12-29T09:33:24;7.44;84.93
77052;SHT30;65980;44.898;8.602;2022-12-29T09:36:29;7.52;84.80
77052;SHT30;65980;44.898;8.602;2022-12-29T09:39:36;7.65;83.76
77052;SHT30;65980;44.898;8.602;2022-12-29T09:46:28;7.68;83.14
77052;SHT30;65980;44.898;8.602;2022-12-29T09:49:45;7.72;83.70
77052;SHT30;65980;44.898;8.602;2022-12-29T09:53:02;7.87;83.83
77052;SHT30;65980;44.898;8.602;2022-12-29T09:56:21;7.82;83.41
77052;SHT30;65980;44.898;8.602;2022-12-29T09:59:40;7.82;83.49
77052;SHT30;65980;44.898;8.602;2022-12-29T10:03:02;8.00;83.21
77052;SHT30;65980;44.898;8.602;2022-12-29T10:06:14;8.07;82.50
77052;SHT30;65980;44.898;8.602;2022-12-29T10:15:49;8.01;82.67
77052;SHT30;65980;44.898;8.602;2022-12-29T10:26:21;8.15;82.47
77052;SHT30;65980;44.898;8.602;2022-12-29T10:29:48;8.14;83.24
77052;SHT30;65980;44.898;8.602;2022-12-29T10:33:18;8.18;83.32
77052;SHT30;65980;44.898;8.602;2022-12-29T10:36:31;8.10;82.69
77052;SHT30;65980;44.898;8.602;2022-12-29T10:39:40;8.07;82.86
77052;SHT30;65980;44.898;8.602;2022-12-29T10:42:52;8.20;82.35
77052;SHT30;65980;44.898;8.602;2022-12-29T10:46:01;8.11;83.06
77052;SHT30;65980;44.898;8.602;2022-12-29T10:49:14;8.10;83.33
77052;SHT30;65980;44.898;8.602;2022-12-29T10:52:20;8.07;82.69
77052;SHT30;65980;44.898;8.602;2022-12-29T10:55:30;8.05;82.48
77052;SHT30;65980;44.898;8.602;2022-12-29T10:58:37;8.01;83.66
77052;SHT30;65980;44.898;8.602;2022-12-29T11:01:53;8.07;82.92
77052;SHT30;65980;44.898;8.602;2022-12-29T11:08:11;8.18;82.46
77052;SHT30;65980;44.898;8.602;2022-12-29T11:11:36;8.42;82.00
77052;SHT30;65980;44.898;8.602;2022-12-29T11:14:46;8.22;84.30
77052;SHT30;65980;44.898;8.602;2022-12-29T11:17:57;8.38;83.44
77052;SHT30;65980;44.898;8.602;2022-12-29T11:21:06;8.62;81.85
77052;SHT30;65980;44.898;8.602;2022-12-29T11:24:25;8.60;82.17
77052;SHT30;65980;44.898;8.602;2022-12-29T11:27:31;8.60;82.04
77052;SHT30;65980;44.898;8.602;2022-12-29T11:30:40;8.72;81.81
77052;SHT30;65980;44.898;8.602;2022-12-29T11:33:48;8.83;82.50
77052;SHT30;65980;44.898;8.602;2022-12-29T11:37:19;8.69;82.19
77052;SHT30;65980;44.898;8.602;2022-12-29T11:40:22;8.62;82.78
77052;SHT30;65980;44.898;8.602;2022-12-29T11:43:45;8.76;82.72
77052;SHT30;65980;44.898;8.602;2022-12-29T11:46:53;9.01;82.59
77052;SHT30;65980;44.898;8.602;2022-12-29T11:50:04;9.20;81.49
77052;SHT30;65980;44.898;8.602;2022-12-29T11:53:20;9.20;81.10
77052;SHT30;65980;44.898;8.602;2022-12-29T11:56:38;9.55;80.89
77052;SHT30;65980;44.898;8.602;2022-12-29T11:59:55;9.75;79.68
77052;SHT30;65980;44.898;8.602;2022-12-29T12:03:21;9.84;79.87
77052;SHT30;65980;44.898;8.602;2022-12-29T12:07:00;9.58;80.55
77052;SHT30;65980;44.898;8.602;2022-12-29T12:10:12;9.50;81.37
77052;SHT30;65980;44.898;8.602;2022-12-29T12:14:04;9.36;81.93
77052;SHT30;65980;44.898;8.602;2022-12-29T12:17:37;9.20;82.64
77052;SHT30;65980;44.898;8.602;2022-12-29T12:20:57;9.43;82.41
77052;SHT30;65980;44.898;8.602;2022-12-29T12:24:11;9.69;81.42
77052;SHT30;65980;44.898;8.602;2022-12-29T12:30:38;9.86;81.21
77052;SHT30;65980;44.898;8.602;2022-12-29T12:34:01;10.00;80.21
77052;SHT30;65980;44.898;8.602;2022-12-29T12:38:16;10.11;79.18
77052;SHT30;65980;44.898;8.602;2022-12-29T12:41:35;9.90;79.99
77052;SHT30;65980;44.898;8.602;2022-12-29T12:59:23;10.34;79.24
77052;SHT30;65980;44.898;8.602;2022-12-29T13:03:04;10.27;78.60
77052;SHT30;65980;44.898;8.602;2022-12-29T13:30:19;9.58;80.98
77052;SHT30;65980;44.898;8.602;2022-12-29T13:36:47;9.25;81.99
77052;SHT30;65980;44.898;8.602;2022-12-29T13:40:01;9.14;82.18
77052;SHT30;65980;44.898;8.602;2022-12-29T13:43:06;9.14;82.55
77052;SHT30;65980;44.898;8.602;2022-12-29T13:46:15;9.42;81.92
77052;SHT30;65980;44.898;8.602;2022-12-29T13:49:27;9.67;80.27
77052;SHT30;65980;44.898;8.602;2022-12-29T13:57:47;9.87;79.58
77052;SHT30;65980;44.898;8.602;2022-12-29T14:01:21;9.52;80.64
77052;SHT30;65980;44.898;8.602;2022-12-29T14:05:05;9.50;80.71
77052;SHT30;65980;44.898;8.602;2022-12-29T14:08:50;9.52;80.51
77052;SHT30;65980;44.898;8.602;2022-12-29T14:12:48;9.82;79.80
77052;SHT30;65980;44.898;8.602;2022-12-29T14:16:27;9.94;79.01
77052;SHT30;65980;44.898;8.602;2022-12-29T14:19:57;9.73;80.36
77052;SHT30;65980;44.898;8.602;2022-12-29T14:23:26;9.97;79.21
77052;SHT30;65980;44.898;8.602;2022-12-29T14:26:35;10.00;78.69
77052;SHT30;65980;44.898;8.602;2022-12-29T14:33:30;9.87;79.91
77052;SHT30;65980;44.898;8.602;2022-12-29T14:37:02;9.72;79.63
77052;SHT30;65980;44.898;8.602;2022-12-29T14:40:38;9.30;80.85
77052;SHT30;65980;44.898;8.602;2022-12-29T14:48:41;9.10;81.75
77052;SHT30;65980;44.898;8.602;2022-12-29T14:52:53;9.41;80.67
77052;SHT30;65980;44.898;8.602;2022-12-29T14:56:43;9.05;81.62
77052;SHT30;65980;44.898;8.602;2022-12-29T15:00:02;9.03;81.54
77052;SHT30;65980;44.898;8.602;2022-12-29T15:03:43;9.32;81.05
77052;SHT30;65980;44.898;8.602;2022-12-29T15:07:14;9.20;80.53
77052;SHT30;65980;44.898;8.602;2022-12-29T15:10:25;9.05;81.34
77052;SHT30;65980;44.898;8.602;2022-12-29T15:13:43;9.05;81.60
77052;SHT30;65980;44.898;8.602;2022-12-29T15:20:31;8.99;82.07
77052;SHT30;65980;44.898;8.602;2022-12-29T15:24:05;8.87;82.13
77052;SHT30;65980;44.898;8.602;2022-12-29T15:27:19;8.88;82.65
77052;SHT30;65980;44.898;8.602;2022-12-29T15:31:22;8.81;82.99
77052;SHT30;65980;44.898;8.602;2022-12-29T15:34:41;8.91;83.42
77052;SHT30;65980;44.898;8.602;2022-12-29T15:37:57;8.81;82.85
77052;SHT30;65980;44.898;8.602;2022-12-29T15:45:06;8.86;83.11
77052;SHT30;65980;44.898;8.602;2022-12-29T15:48:38;8.86;83.05
77052;SHT30;65980;44.898;8.602;2022-12-29T15:51:51;8.76;83.14
77052;SHT30;65980;44.898;8.602;2022-12-29T15:54:59;8.73;83.07
77052;SHT30;65980;44.898;8.602;2022-12-29T15:58:26;8.75;82.99
77052;SHT30;65980;44.898;8.602;2022-12-29T16:01:47;8.73;83.18
77052;SHT30;65980;44.898;8.602;2022-12-29T16:05:16;8.90;82.83
77052;SHT30;65980;44.898;8.602;2022-12-29T16:12:22;9.22;82.37
77052;SHT30;65980;44.898;8.602;2022-12-29T16:15:37;9.41;81.53
77052;SHT30;65980;44.898;8.602;2022-12-29T16:18:45;9.55;81.20
77052;SHT30;65980;44.898;8.602;2022-12-29T16:22:17;9.17;83.32
77052;SHT30;65980;44.898;8.602;2022-12-29T16:25:41;9.34;83.72
77052;SHT30;65980;44.898;8.602;2022-12-29T16:28:56;9.52;82.11
77052;SHT30;65980;44.898;8.602;2022-12-29T16:32:45;9.67;81.80
77052;SHT30;65980;44.898;8.602;2022-12-29T16:35:54;9.72;81.48
77052;SHT30;65980;44.898;8.602;2022-12-29T16:42:49;9.79;80.93
77052;SHT30;65980;44.898;8.602;2022-12-29T16:46:28;9.79;79.76
77052;SHT30;65980;44.898;8.602;2022-12-29T16:50:20;9.72;80.83
77052;SHT30;65980;44.898;8.602;2022-12-29T16:57:42;9.65;81.68
77052;SHT30;65980;44.898;8.602;2022-12-29T17:01:15;9.67;82.07
77052;SHT30;65980;44.898;8.602;2022-12-29T17:04:26;9.50;82.96
77052;SHT30;65980;44.898;8.602;2022-12-29T17:07:50;9.60;81.74
77052;SHT30;65980;44.898;8.602;2022-12-29T17:11:26;9.08;84.07
77052;SHT30;65980;44.898;8.602;2022-12-29T17:19:11;8.88;85.46
77052;SHT30;65980;44.898;8.602;2022-12-29T17:22:36;9.21;83.91
77052;SHT30;65980;44.898;8.602;2022-12-29T17:25:41;9.30;84.10
77052;SHT30;65980;44.898;8.602;2022-12-29T17:33:11;9.17;84.33
77052;SHT30;65980;44.898;8.602;2022-12-29T17:40:49;9.17;84.31
77052;SHT30;65980;44.898;8.602;2022-12-29T17:44:05;9.18;84.41
77052;SHT30;65980;44.898;8.602;2022-12-29T17:47:25;8.96;84.95
77052;SHT30;65980;44.898;8.602;2022-12-29T17:51:08;9.01;85.16
77052;SHT30;65980;44.898;8.602;2022-12-29T17:55:03;9.11;84.26
77052;SHT30;65980;44.898;8.602;2022-12-29T17:57:49;8.97;84.57
77052;SHT30;65980;44.898;8.602;2022-12-29T18:01:04;9.05;83.86
77052;SHT30;65980;44.898;8.602;2022-12-29T18:08:08;9.20;82.71
77052;SHT30;65980;44.898;8.602;2022-12-29T18:16:14;9.34;81.53
77052;SHT30;65980;44.898;8.602;2022-12-29T18:19:21;9.39;81.25
77052;SHT30;65980;44.898;8.602;2022-12-29T18:22:25;9.25;81.48
77052;SHT30;65980;44.898;8.602;2022-12-29T18:26:20;9.27;82.54
77052;SHT30;65980;44.898;8.602;2022-12-29T18:29:41;9.34;81.88
77052;SHT30;65980;44.898;8.602;2022-12-29T18:36:43;9.28;81.91
77052;SHT30;65980;44.898;8.602;2022-12-29T18:40:25;9.15;82.35
77052;SHT30;65980;44.898;8.602;2022-12-29T18:44:12;9.30;82.67
77052;SHT30;65980;44.898;8.602;2022-12-29T18:47:22;9.43;81.58
77052;SHT30;65980;44.898;8.602;2022-12-29T18:50:28;9.41;82.04
77052;SHT30;65980;44.898;8.602;2022-12-29T18:54:24;9.50;81.70
77052;SHT30;65980;44.898;8.602;2022-12-29T18:57:47;9.56;81.57
77052;SHT30;65980;44.898;8.602;2022-12-29T19:00:55;9.53;81.60
77052;SHT30;65980;44.898;8.602;2022-12-29T19:04:07;9.50;81.49
77052;SHT30;65980;44.898;8.602;2022-12-29T19:07:23;9.05;82.81
77052;SHT30;65980;44.898;8.602;2022-12-29T19:10:28;8.86;83.89
77052;SHT30;65980;44.898;8.602;2022-12-29T19:13:33;9.03;83.30
77052;SHT30;65980;44.898;8.602;2022-12-29T19:17:39;9.24;82.71
77052;SHT30;65980;44.898;8.602;2022-12-29T19:20:48;9.08;82.85
77052;SHT30;65980;44.898;8.602;2022-12-29T19:24:32;8.80;84.03
77052;SHT30;65980;44.898;8.602;2022-12-29T19:32:51;8.86;84.22
77052;SHT30;65980;44.898;8.602;2022-12-29T19:36:34;8.97;84.25
77052;SHT30;65980;44.898;8.602;2022-12-29T19:39:50;9.18;83.71
77052;SHT30;65980;44.898;8.602;2022-12-29T19:43:02;9.35;82.90
77052;SHT30;65980;44.898;8.602;2022-12-29T19:46:08;9.43;82.73
77052;SHT30;65980;44.898;8.602;2022-12-29T19:54:02;9.70;82.40
77052;SHT30;65980;44.898;8.602;2022-12-29T19:57:21;9.75;82.09
77052;SHT30;65980;44.898;8.602;2022-12-29T20:01:24;9.62;82.37
77052;SHT30;65980;44.898;8.602;2022-12-29T20:04:51;9.66;81.79
77052;SHT30;65980;44.898;8.602;2022-12-29T20:08:26;9.65;82.00
77052;SHT30;65980;44.898;8.602;2022-12-29T20:16:06;9.46;82.93
77052;SHT30;65980;44.898;8.602;2022-12-29T20:19:19;9.39;83.04
77052;SHT30;65980;44.898;8.602;2022-12-29T20:22:26;9.55;82.71
77052;SHT30;65980;44.898;8.602;2022-12-29T20:25:34;9.43;83.86
77052;SHT30;65980;44.898;8.602;2022-12-29T20:28:45;9.56;83.43
77052;SHT30;65980;44.898;8.602;2022-12-29T20:32:21;9.72;82.30
77052;SHT30;65980;44.898;8.602;2022-12-29T20:36:36;9.60;83.06
77052;SHT30;65980;44.898;8.602;2022-12-29T20:48:01;9.45;83.21
77052;SHT30;65980;44.898;8.602;2022-12-29T20:51:36;9.49;83.14
77052;SHT30;65980;44.898;8.602;2022-12-29T20:59:01;9.58;83.11
77052;SHT30;65980;44.898;8.602;2022-12-29T21:02:30;9.60;82.58
77052;SHT30;65980;44.898;8.602;2022-12-29T21:05:41;9.58;82.68
77052;SHT30;65980;44.898;8.602;2022-12-29T21:16:23;9.32;84.64
77052;SHT30;65980;44.898;8.602;2022-12-29T21:19:27;9.48;84.08
77052;SHT30;65980;44.898;8.602;2022-12-29T21:22:35;9.52;83.72
77052;SHT30;65980;44.898;8.602;2022-12-29T21:25:42;9.50;84.25
77052;SHT30;65980;44.898;8.602;2022-12-29T21:29:12;9.48;83.58
77052;SHT30;65980;44.898;8.602;2022-12-29T21:32:24;9.42;84.36
77052;SHT30;65980;44.898;8.602;2022-12-29T21:36:27;9.53;83.95
77052;SHT30;65980;44.898;8.602;2022-12-29T21:39:31;9.55;83.77
77052;SHT30;65980;44.898;8.602;2022-12-29T21:42:34;9.45;84.38
77052;SHT30;65980;44.898;8.602;2022-12-29T21:45:39;9.48;84.84
77052;SHT30;65980;44.898;8.602;2022-12-29T21:48:55;9.52;84.75
77052;SHT30;65980;44.898;8.602;2022-12-29T21:52:05;9.50;84.61
77052;SHT30;65980;44.898;8.602;2022-12-29T21:55:15;9.45;85.27
77052;SHT30;65980;44.898;8.602;2022-12-29T21:58:23;9.53;84.76
77052;SHT30;65980;44.898;8.602;2022-12-29T22:02:48;9.60;84.38
77052;SHT30;65980;44.898;8.602;2022-12-29T22:06:24;9.66;84.04
77052;SHT30;65980;44.898;8.602;2022-12-29T22:09:53;9.50;84.90
77052;SHT30;65980;44.898;8.602;2022-12-29T22:14:12;9.48;85.20
77052;SHT30;65980;44.898;8.602;2022-12-29T22:17:51;9.56;84.88
77052;SHT30;65980;44.898;8.602;2022-12-29T22:21:19;9.49;85.13
77052;SHT30;65980;44.898;8.602;2022-12-29T22:24:54;9.66;84.63
77052;SHT30;65980;44.898;8.602;2022-12-29T22:28:02;9.70;84.15
77052;SHT30;65980;44.898;8.602;2022-12-29T22:31:31;9.73;84.16
77052;SHT30;65980;44.898;8.602;2022-12-29T22:34:39;9.73;84.06
77052;SHT30;65980;44.898;8.602;2022-12-29T22:41:42;9.59;84.41
77052;SHT30;65980;44.898;8.602;2022-12-29T22:44:51;9.69;84.72
77052;SHT30;65980;44.898;8.602;2022-12-29T22:48:00;9.69;84.73
77052;SHT30;65980;44.898;8.602;2022-12-29T22:51:27;9.62;85.00
77052;SHT30;65980;44.898;8.602;2022-12-29T22:54:35;9.70;84.35
77052;SHT30;65980;44.898;8.602;2022-12-29T22:58:04;9.08;86.65
77052;SHT30;65980;44.898;8.602;2022-12-29T23:01:12;9.36;86.14
77052;SHT30;65980;44.898;8.602;2022-12-29T23:04:44;9.52;85.18
77052;SHT30;65980;44.898;8.602;2022-12-29T23:08:03;9.25;86.05
77052;SHT30;65980;44.898;8.602;2022-12-29T23:11:19;9.55;85.05
77052;SHT30;65980;44.898;8.602;2022-12-29T23:14:48;9.66;84.79
77052;SHT30;65980;44.898;8.602;2022-12-29T23:18:26;9.76;84.39
77052;SHT30;65980;44.898;8.602;2022-12-29T23:21:59;9.77;84.10
77052;SHT30;65980;44.898;8.602;2022-12-29T23:25:29;9.80;83.74
77052;SHT30;65980;44.898;8.602;2022-12-29T23:29:16;9.75;84.03
77052;SHT30;65980;44.898;8.602;2022-12-29T23:33:43;9.11;86.60
77052;SHT30;65980;44.898;8.602;2022-12-29T23:41:15;9.53;84.74
77052;SHT30;65980;44.898;8.602;2022-12-29T23:44:22;9.59;84.72
77052;SHT30;65980;44.898;8.602;2022-12-29T23:47:26;9.60;84.78
77052;SHT30;65980;44.898;8.602;2022-12-29T23:50:56;9.72;84.48
77052;SHT30;65980;44.898;8.602;2022-12-29T23:54:03;9.72;84.15
77052;SHT30;65980;44.898;8.602;2022-12-29T23:57:12;9.50;85.16
